sensor_id;sensor_type;location;lat;lon;timestamp;temperature;humidity
69776;DHT22;57049;51.450;-2.516;2022-08-11T00:00:58;21.85;52.50
69776;DHT22;57049;51.450;-2.516;2022-08-11T00:03:25;21.79;52.70
69776;DHT22;57049;51.450;-2.516;2022-08-11T00:05:53;21.85;52.56
69776;DHT22;57049;51.450;-2.516;2022-08-11T00:08:28;21.93;52.13
69776;DHT22;57049;51.450;-2.516;2022-08-11T00:11:13;21.85;52.58
69776;DHT22;57049;51.450;-2.516;2022-08-11T00:13:43;21.74;52.80
69776;DHT22;57049;51.450;-2.516;2022-08-11T00:16:15;21.71;52.80
69776;DHT22;57049;51.450;-2.516;2022-08-11T00:18:43;21.75;52.49
69776;DHT22;57049;51.450;-2.516;2022-08-11T00:21:09;21.71;52.39
69776;DHT22;57049;51.450;-2.516;2022-08-11T00:23:40;21.72;51.44
69776;DHT22;57049;51.450;-2.516;2022-08-11T00:26:07;21.85;50.35
69776;DHT22;57049;51.450;-2.516;2022-08-11T00:28:34;21.92;49.63
69776;DHT22;57049;51.450;-2.516;2022-08-11T00:31:08;21.99;49.16
69776;DHT22;57049;51.450;-2.516;2022-08-11T00:33:41;21.98;49.14
69776;DHT22;57049;51.450;-2.516;2022-08-11T00:36:08;21.92;49.62
69776;DHT22;57049;51.450;-2.516;2022-08-11T00:38:38;22.01;49.19
69776;DHT22;57049;51.450;-2.516;2022-08-11T00:57:31;21.11;53.56
69776;DHT22;57049;51.450;-2.516;2022-08-11T01:03:05;21.01;53.82
69776;DHT22;57049;51.450;-2.516;2022-08-11T01:27:43;20.35;56.06
69776;DHT22;57049;51.450;-2.516;2022-08-11T01:34:20;20.29;56.52
69776;DHT22;57049;51.450;-2.516;2022-08-11T01:48:38;19.33;59.31
69776;DHT22;57049;51.450;-2.516;2022-08-11T01:54:08;19.13;60.24
69776;DHT22;57049;51.450;-2.516;2022-08-11T01:56:53;19.14;59.93
69776;DHT22;57049;51.450;-2.516;2022-08-11T01:59:33;19.17;59.34
69776;DHT22;57049;51.450;-2.516;2022-08-11T02:02:04;19.00;60.38
69776;DHT22;57049;51.450;-2.516;2022-08-11T02:04:37;18.86;60.76
69776;DHT22;57049;51.450;-2.516;2022-08-11T02:15:45;18.69;61.65
69776;DHT22;57049;51.450;-2.516;2022-08-11T02:18:26;19.00;60.77
69776;DHT22;57049;51.450;-2.516;2022-08-11T02:21:17;18.98;60.98
69776;DHT22;57049;51.450;-2.516;2022-08-11T02:24:05;18.85;61.33
69776;DHT22;57049;51.450;-2.516;2022-08-11T02:26:45;18.68;61.95
69776;DHT22;57049;51.450;-2.516;2022-08-11T02:29:24;18.59;62.14
69776;DHT22;57049;51.450;-2.516;2022-08-11T02:32:06;18.48;62.80
69776;DHT22;57049;51.450;-2.516;2022-08-11T02:42:39;18.38;62.92
69776;DHT22;57049;51.450;-2.516;2022-08-11T02:54:09;19.26;59.91
69776;DHT22;57049;51.450;-2.516;2022-08-11T02:57:03;19.20;60.10
69776;DHT22;57049;51.450;-2.516;2022-08-11T02:59:44;18.88;61.22
69776;DHT22;57049;51.450;-2.516;2022-08-11T03:02:54;18.89;61.19
69776;DHT22;57049;51.450;-2.516;2022-08-11T03:05:41;18.76;61.73
69776;DHT22;57049;51.450;-2.516;2022-08-11T03:08:54;18.55;62.53
69776;DHT22;57049;51.450;-2.516;2022-08-11T03:14:50;18.41;63.61
69776;DHT22;57049;51.450;-2.516;2022-08-11T03:20:32;18.49;63.67
69776;DHT22;57049;51.450;-2.516;2022-08-11T03:31:33;18.68;63.42
69776;DHT22;57049;51.450;-2.516;2022-08-11T03:34:08;18.73;62.94
69776;DHT22;57049;51.450;-2.516;2022-08-11T03:40:24;18.42;63.80
69776;DHT22;57049;51.450;-2.516;2022-08-11T03:45:20;18.69;63.00
69776;DHT22;57049;51.450;-2.516;2022-08-11T04:05:08;18.42;64.19
69776;DHT22;57049;51.450;-2.516;2022-08-11T04:26:32;18.03;66.29
69776;DHT22;57049;51.450;-2.516;2022-08-11T04:29:30;18.11;66.31
69776;DHT22;57049;51.450;-2.516;2022-08-11T04:35:13;17.97;66.94
69776;DHT22;57049;51.450;-2.516;2022-08-11T04:40:48;17.94;67.23
69776;DHT22;57049;51.450;-2.516;2022-08-11T05:04:58;17.43;70.03
69776;DHT22;57049;51.450;-2.516;2022-08-11T05:13:50;17.32;70.14
69776;DHT22;57049;51.450;-2.516;2022-08-11T05:16:44;17.28;70.33
69776;DHT22;57049;51.450;-2.516;2022-08-11T05:19:35;17.26;71.29
69776;DHT22;57049;51.450;-2.516;2022-08-11T05:22:21;17.23;71.22
69776;DHT22;57049;51.450;-2.516;2022-08-11T05:25:08;17.20;71.14
69776;DHT22;57049;51.450;-2.516;2022-08-11T05:31:31;17.16;70.80
69776;DHT22;57049;51.450;-2.516;2022-08-11T05:34:11;17.11;72.32
69776;DHT22;57049;51.450;-2.516;2022-08-11T05:37:19;17.19;72.03
69776;DHT22;57049;51.450;-2.516;2022-08-11T05:39:50;17.23;72.31
69776;DHT22;57049;51.450;-2.516;2022-08-11T05:42:41;17.30;72.38
69776;DHT22;57049;51.450;-2.516;2022-08-11T05:45:26;17.62;71.52
69776;DHT22;57049;51.450;-2.516;2022-08-11T05:48:12;18.15;69.67
69776;DHT22;57049;51.450;-2.516;2022-08-11T05:50:58;18.64;68.07
69776;DHT22;57049;51.450;-2.516;2022-08-11T05:53:53;19.91;64.52
69776;DHT22;57049;51.450;-2.516;2022-08-11T05:56:49;21.08;60.43
69776;DHT22;57049;51.450;-2.516;2022-08-11T05:59:18;22.05;57.83
69776;DHT22;57049;51.450;-2.516;2022-08-11T06:01:45;23.05;54.74
69776;DHT22;57049;51.450;-2.516;2022-08-11T06:04:20;23.82;52.10
69776;DHT22;57049;51.450;-2.516;2022-08-11T06:07:05;24.14;51.32
69776;DHT22;57049;51.450;-2.516;2022-08-11T06:09:38;24.67;49.78
69776;DHT22;57049;51.450;-2.516;2022-08-11T06:12:23;25.18;48.28
69776;DHT22;57049;51.450;-2.516;2022-08-11T06:14:53;24.96;48.53
69776;DHT22;57049;51.450;-2.516;2022-08-11T06:17:27;25.28;48.24
69776;DHT22;57049;51.450;-2.516;2022-08-11T06:20:00;25.80;47.18
69776;DHT22;57049;51.450;-2.516;2022-08-11T06:22:27;25.54;47.50
69776;DHT22;57049;51.450;-2.516;2022-08-11T06:24:58;25.65;47.12
69776;DHT22;57049;51.450;-2.516;2022-08-11T06:27:32;25.86;46.78
69776;DHT22;57049;51.450;-2.516;2022-08-11T06:29:59;25.97;46.43
69776;DHT22;57049;51.450;-2.516;2022-08-11T06:32:30;26.37;45.86
69776;DHT22;57049;51.450;-2.516;2022-08-11T06:35:22;26.25;45.80
69776;DHT22;57049;51.450;-2.516;2022-08-11T06:38:05;26.55;45.09
69776;DHT22;57049;51.450;-2.516;2022-08-11T06:41:20;27.16;44.22
69776;DHT22;57049;51.450;-2.516;2022-08-11T06:44:01;27.71;43.08
69776;DHT22;57049;51.450;-2.516;2022-08-11T06:46:32;28.06;42.10
69776;DHT22;57049;51.450;-2.516;2022-08-11T06:49:02;27.55;42.79
69776;DHT22;57049;51.450;-2.516;2022-08-11T06:51:28;27.64;43.34
69776;DHT22;57049;51.450;-2.516;2022-08-11T06:53:56;27.68;42.61
69776;DHT22;57049;51.450;-2.516;2022-08-11T06:56:32;28.21;42.20
69776;DHT22;57049;51.450;-2.516;2022-08-11T06:59:18;28.45;40.99
69776;DHT22;57049;51.450;-2.516;2022-08-11T07:02:21;27.54;43.69
69776;DHT22;57049;51.450;-2.516;2022-08-11T07:04:52;27.32;43.52
69776;DHT22;57049;51.450;-2.516;2022-08-11T07:13:35;28.14;42.32
69776;DHT22;57049;51.450;-2.516;2022-08-11T07:16:26;28.15;42.22
69776;DHT22;57049;51.450;-2.516;2022-08-11T07:18:57;28.45;42.00
69776;DHT22;57049;51.450;-2.516;2022-08-11T07:21:45;27.61;43.13
69776;DHT22;57049;51.450;-2.516;2022-08-11T07:24:34;28.52;41.88
69776;DHT22;57049;51.450;-2.516;2022-08-11T07:27:20;29.26;40.83
69776;DHT22;57049;51.450;-2.516;2022-08-11T07:30:08;28.99;40.88
69776;DHT22;57049;51.450;-2.516;2022-08-11T07:32:59;29.13;40.21
69776;DHT22;57049;51.450;-2.516;2022-08-11T07:35:43;29.06;40.10
69776;DHT22;57049;51.450;-2.516;2022-08-11T07:38:17;29.41;39.66
69776;DHT22;57049;51.450;-2.516;2022-08-11T07:40:45;29.26;39.39
69776;DHT22;57049;51.450;-2.516;2022-08-11T07:43:12;29.31;39.96
69776;DHT22;57049;51.450;-2.516;2022-08-11T07:45:45;29.31;39.96
69776;DHT22;57049;51.450;-2.516;2022-08-11T07:48:31;29.62;38.83
69776;DHT22;57049;51.450;-2.516;2022-08-11T07:51:18;29.59;39.58
69776;DHT22;57049;51.450;-2.516;2022-08-11T07:54:04;30.04;38.48
69776;DHT22;57049;51.450;-2.516;2022-08-11T07:56:36;29.71;39.26
69776;DHT22;57049;51.450;-2.516;2022-08-11T07:59:03;29.18;40.25
69776;DHT22;57049;51.450;-2.516;2022-08-11T08:01:48;29.00;40.34
69776;DHT22;57049;51.450;-2.516;2022-08-11T08:04:33;29.89;38.95
69776;DHT22;57049;51.450;-2.516;2022-08-11T08:07:20;29.34;39.54
69776;DHT22;57049;51.450;-2.516;2022-08-11T08:10:08;29.59;39.68
69776;DHT22;57049;51.450;-2.516;2022-08-11T08:12:56;29.21;39.81
69776;DHT22;57049;51.450;-2.516;2022-08-11T08:15:41;29.20;40.10
69776;DHT22;57049;51.450;-2.516;2022-08-11T08:18:26;29.53;39.82
69776;DHT22;57049;51.450;-2.516;2022-08-11T08:20:53;29.43;39.71
69776;DHT22;57049;51.450;-2.516;2022-08-11T08:23:21;30.13;39.02
69776;DHT22;57049;51.450;-2.516;2022-08-11T08:25:58;30.30;38.98
69776;DHT22;57049;51.450;-2.516;2022-08-11T08:28:26;31.08;37.07
69776;DHT22;57049;51.450;-2.516;2022-08-11T08:30:53;30.61;37.97
69776;DHT22;57049;51.450;-2.516;2022-08-11T08:33:28;31.42;37.33
69776;DHT22;57049;51.450;-2.516;2022-08-11T08:35:56;31.49;36.48
69776;DHT22;57049;51.450;-2.516;2022-08-11T08:38:45;31.24;36.51
69776;DHT22;57049;51.450;-2.516;2022-08-11T08:41:12;31.01;37.09
69776;DHT22;57049;51.450;-2.516;2022-08-11T08:43:39;31.18;36.70
69776;DHT22;57049;51.450;-2.516;2022-08-11T08:46:08;30.81;37.33
69776;DHT22;57049;51.450;-2.516;2022-08-11T08:48:35;32.02;36.36
69776;DHT22;57049;51.450;-2.516;2022-08-11T08:51:10;31.61;36.10
69776;DHT22;57049;51.450;-2.516;2022-08-11T08:54:18;31.48;35.91
69776;DHT22;57049;51.450;-2.516;2022-08-11T08:56:45;30.79;37.55
69776;DHT22;57049;51.450;-2.516;2022-08-11T08:59:13;31.10;36.63
69776;DHT22;57049;51.450;-2.516;2022-08-11T09:01:47;32.13;36.14
69776;DHT22;57049;51.450;-2.516;2022-08-11T09:04:14;30.79;37.45
69776;DHT22;57049;51.450;-2.516;2022-08-11T09:06:43;31.01;37.21
69776;DHT22;57049;51.450;-2.516;2022-08-11T09:09:09;29.72;38.93
69776;DHT22;57049;51.450;-2.516;2022-08-11T09:11:37;28.93;40.54
69776;DHT22;57049;51.450;-2.516;2022-08-11T09:14:20;28.65;41.05
69776;DHT22;57049;51.450;-2.516;2022-08-11T09:16:46;28.66;41.58
69776;DHT22;57049;51.450;-2.516;2022-08-11T09:19:14;28.29;41.23
69776;DHT22;57049;51.450;-2.516;2022-08-11T09:21:44;28.79;40.37
69776;DHT22;57049;51.450;-2.516;2022-08-11T09:24:11;28.46;40.66
69776;DHT22;57049;51.450;-2.516;2022-08-11T09:26:56;28.08;40.94
69776;DHT22;57049;51.450;-2.516;2022-08-11T09:29:29;27.78;41.24
69776;DHT22;57049;51.450;-2.516;2022-08-11T09:31:57;28.05;40.58
69776;DHT22;57049;51.450;-2.516;2022-08-11T09:34:23;27.77;40.64
69776;DHT22;57049;51.450;-2.516;2022-08-11T09:36:51;27.80;40.50
69776;DHT22;57049;51.450;-2.516;2022-08-11T09:39:37;27.53;41.68
69776;DHT22;57049;51.450;-2.516;2022-08-11T09:42:21;27.30;41.60
69776;DHT22;57049;51.450;-2.516;2022-08-11T09:45:10;27.98;39.77
69776;DHT22;57049;51.450;-2.516;2022-08-11T09:47:37;27.46;39.83
69776;DHT22;57049;51.450;-2.516;2022-08-11T09:50:05;27.51;39.72
69776;DHT22;57049;51.450;-2.516;2022-08-11T09:52:35;27.42;40.46
69776;DHT22;57049;51.450;-2.516;2022-08-11T09:55:02;27.64;39.56
69776;DHT22;57049;51.450;-2.516;2022-08-11T09:57:38;27.47;39.85
69776;DHT22;57049;51.450;-2.516;2022-08-11T10:00:31;27.71;38.19
69776;DHT22;57049;51.450;-2.516;2022-08-11T10:02:58;28.05;38.09
69776;DHT22;57049;51.450;-2.516;2022-08-11T10:05:28;28.04;37.15
69776;DHT22;57049;51.450;-2.516;2022-08-11T10:08:15;27.87;38.74
69776;DHT22;57049;51.450;-2.516;2022-08-11T10:10:42;27.50;38.96
69776;DHT22;57049;51.450;-2.516;2022-08-11T10:13:14;27.76;39.62
69776;DHT22;57049;51.450;-2.516;2022-08-11T10:15:43;27.74;37.05
69776;DHT22;57049;51.450;-2.516;2022-08-11T10:18:20;27.76;37.84
69776;DHT22;57049;51.450;-2.516;2022-08-11T10:23:55;27.98;37.89
69776;DHT22;57049;51.450;-2.516;2022-08-11T10:26:42;28.11;38.28
69776;DHT22;57049;51.450;-2.516;2022-08-11T10:32:08;28.84;36.23
69776;DHT22;57049;51.450;-2.516;2022-08-11T10:34:53;28.29;35.48
69776;DHT22;57049;51.450;-2.516;2022-08-11T10:37:22;28.29;36.76
69776;DHT22;57049;51.450;-2.516;2022-08-11T10:39:48;28.15;37.03
69776;DHT22;57049;51.450;-2.516;2022-08-11T10:42:14;28.15;37.37
69776;DHT22;57049;51.450;-2.516;2022-08-11T10:45:00;28.14;37.46
69776;DHT22;57049;51.450;-2.516;2022-08-11T10:47:28;28.31;37.51
69776;DHT22;57049;51.450;-2.516;2022-08-11T10:50:08;28.56;35.52
69776;DHT22;57049;51.450;-2.516;2022-08-11T10:52:55;28.72;35.21
69776;DHT22;57049;51.450;-2.516;2022-08-11T10:55:42;28.79;34.56
69776;DHT22;57049;51.450;-2.516;2022-08-11T10:58:27;29.06;33.87
69776;DHT22;57049;51.450;-2.516;2022-08-11T11:01:13;29.21;34.20
69776;DHT22;57049;51.450;-2.516;2022-08-11T11:03:41;29.08;35.32
69776;DHT22;57049;51.450;-2.516;2022-08-11T11:06:35;29.07;35.25
69776;DHT22;57049;51.450;-2.516;2022-08-11T11:09:13;28.99;34.65
69776;DHT22;57049;51.450;-2.516;2022-08-11T11:11:48;28.99;35.25
69776;DHT22;57049;51.450;-2.516;2022-08-11T11:14:35;29.24;35.04
69776;DHT22;57049;51.450;-2.516;2022-08-11T11:17:27;28.93;35.39
69776;DHT22;57049;51.450;-2.516;2022-08-11T11:20:15;28.49;35.66
69776;DHT22;57049;51.450;-2.516;2022-08-11T11:22:42;28.89;35.83
69776;DHT22;57049;51.450;-2.516;2022-08-11T11:25:29;28.70;35.14
69776;DHT22;57049;51.450;-2.516;2022-08-11T11:28:31;28.75;35.54
69776;DHT22;57049;51.450;-2.516;2022-08-11T11:33:57;28.99;34.30
69776;DHT22;57049;51.450;-2.516;2022-08-11T11:39:10;29.03;34.30
69776;DHT22;57049;51.450;-2.516;2022-08-11T11:41:36;29.14;34.98
69776;DHT22;57049;51.450;-2.516;2022-08-11T11:44:03;29.03;34.55
69776;DHT22;57049;51.450;-2.516;2022-08-11T11:46:29;29.28;34.75
69776;DHT22;57049;51.450;-2.516;2022-08-11T11:48:56;29.10;34.71
69776;DHT22;57049;51.450;-2.516;2022-08-11T11:51:23;29.02;35.11
69776;DHT22;57049;51.450;-2.516;2022-08-11T11:53:51;29.13;33.87
69776;DHT22;57049;51.450;-2.516;2022-08-11T11:56:18;29.34;34.11
69776;DHT22;57049;51.450;-2.516;2022-08-11T11:58:46;29.33;34.75
69776;DHT22;57049;51.450;-2.516;2022-08-11T12:01:31;29.17;34.32
69776;DHT22;57049;51.450;-2.516;2022-08-11T12:03:59;29.30;34.59
69776;DHT22;57049;51.450;-2.516;2022-08-11T12:06:25;29.62;33.70
69776;DHT22;57049;51.450;-2.516;2022-08-11T12:08:54;29.79;34.31
69776;DHT22;57049;51.450;-2.516;2022-08-11T12:11:23;29.75;34.26
69776;DHT22;57049;51.450;-2.516;2022-08-11T12:14:09;29.84;33.72
69776;DHT22;57049;51.450;-2.516;2022-08-11T12:16:36;29.81;33.12
69776;DHT22;57049;51.450;-2.516;2022-08-11T12:19:07;29.93;33.33
69776;DHT22;57049;51.450;-2.516;2022-08-11T12:21:35;30.04;33.45
69776;DHT22;57049;51.450;-2.516;2022-08-11T12:24:02;30.05;32.83
69776;DHT22;57049;51.450;-2.516;2022-08-11T12:26:47;30.15;33.49
69776;DHT22;57049;51.450;-2.516;2022-08-11T12:29:15;29.85;34.22
69776;DHT22;57049;51.450;-2.516;2022-08-11T12:31:42;29.85;34.24
69776;DHT22;57049;51.450;-2.516;2022-08-11T12:34:10;29.90;33.27
69776;DHT22;57049;51.450;-2.516;2022-08-11T12:36:38;30.08;33.48
69776;DHT22;57049;51.450;-2.516;2022-08-11T12:39:12;30.33;32.87
69776;DHT22;57049;51.450;-2.516;2022-08-11T12:41:42;30.08;32.30
69776;DHT22;57049;51.450;-2.516;2022-08-11T12:44:27;30.06;32.09
69776;DHT22;57049;51.450;-2.516;2022-08-11T12:47:18;30.29;32.00
69776;DHT22;57049;51.450;-2.516;2022-08-11T12:49:47;30.18;32.05
69776;DHT22;57049;51.450;-2.516;2022-08-11T12:52:42;30.20;32.64
69776;DHT22;57049;51.450;-2.516;2022-08-11T12:55:11;30.02;32.51
69776;DHT22;57049;51.450;-2.516;2022-08-11T12:57:44;30.39;32.19
69776;DHT22;57049;51.450;-2.516;2022-08-11T13:00:30;30.41;31.70
69776;DHT22;57049;51.450;-2.516;2022-08-11T13:03:18;30.73;31.78
69776;DHT22;57049;51.450;-2.516;2022-08-11T13:06:03;30.67;30.86
69776;DHT22;57049;51.450;-2.516;2022-08-11T13:08:32;30.41;30.60
69776;DHT22;57049;51.450;-2.516;2022-08-11T13:11:00;30.87;30.24
69776;DHT22;57049;51.450;-2.516;2022-08-11T13:13:47;31.41;29.73
69776;DHT22;57049;51.450;-2.516;2022-08-11T13:16:14;31.79;29.98
69776;DHT22;57049;51.450;-2.516;2022-08-11T13:18:41;31.97;29.66
69776;DHT22;57049;51.450;-2.516;2022-08-11T13:21:12;31.55;29.02
69776;DHT22;57049;51.450;-2.516;2022-08-11T13:23:39;31.65;27.88
69776;DHT22;57049;51.450;-2.516;2022-08-11T13:26:05;31.63;28.81
69776;DHT22;57049;51.450;-2.516;2022-08-11T13:28:34;31.51;29.56
69776;DHT22;57049;51.450;-2.516;2022-08-11T13:31:01;31.51;29.52
69776;DHT22;57049;51.450;-2.516;2022-08-11T13:33:45;31.42;30.38
69776;DHT22;57049;51.450;-2.516;2022-08-11T13:36:12;31.35;31.41
69776;DHT22;57049;51.450;-2.516;2022-08-11T13:38:41;31.69;30.66
69776;DHT22;57049;51.450;-2.516;2022-08-11T13:41:08;32.06;29.64
69776;DHT22;57049;51.450;-2.516;2022-08-11T13:43:55;31.97;30.03
69776;DHT22;57049;51.450;-2.516;2022-08-11T13:46:21;31.96;29.36
69776;DHT22;57049;51.450;-2.516;2022-08-11T13:48:52;31.65;29.26
69776;DHT22;57049;51.450;-2.516;2022-08-11T13:51:19;32.06;28.87
69776;DHT22;57049;51.450;-2.516;2022-08-11T13:56:26;31.65;28.73
69776;DHT22;57049;51.450;-2.516;2022-08-11T13:58:54;31.58;28.88
69776;DHT22;57049;51.450;-2.516;2022-08-11T14:01:20;31.61;28.49
69776;DHT22;57049;51.450;-2.516;2022-08-11T14:03:47;31.92;28.23
69776;DHT22;57049;51.450;-2.516;2022-08-11T14:06:14;31.85;28.63
69776;DHT22;57049;51.450;-2.516;2022-08-11T14:08:42;31.99;28.95
69776;DHT22;57049;51.450;-2.516;2022-08-11T14:11:08;31.83;28.83
69776;DHT22;57049;51.450;-2.516;2022-08-11T14:13:54;31.57;28.96
69776;DHT22;57049;51.450;-2.516;2022-08-11T14:16:25;31.83;28.79
69776;DHT22;57049;51.450;-2.516;2022-08-11T14:18:57;31.89;28.77
69776;DHT22;57049;51.450;-2.516;2022-08-11T14:21:24;31.81;27.93
69776;DHT22;57049;51.450;-2.516;2022-08-11T14:24:10;31.92;28.18
69776;DHT22;57049;51.450;-2.516;2022-08-11T14:26:37;32.09;28.11
69776;DHT22;57049;51.450;-2.516;2022-08-11T14:29:13;32.27;27.81
69776;DHT22;57049;51.450;-2.516;2022-08-11T14:31:44;32.23;27.55
69776;DHT22;57049;51.450;-2.516;2022-08-11T14:34:11;32.16;28.84
69776;DHT22;57049;51.450;-2.516;2022-08-11T14:36:44;31.96;28.81
69776;DHT22;57049;51.450;-2.516;2022-08-11T14:39:13;32.19;28.28
69776;DHT22;57049;51.450;-2.516;2022-08-11T14:41:44;32.45;26.74
69776;DHT22;57049;51.450;-2.516;2022-08-11T14:44:30;32.14;27.37
69776;DHT22;57049;51.450;-2.516;2022-08-11T14:47:17;32.10;27.94
69776;DHT22;57049;51.450;-2.516;2022-08-11T14:49:43;32.08;27.75
69776;DHT22;57049;51.450;-2.516;2022-08-11T14:52:11;31.99;27.77
69776;DHT22;57049;51.450;-2.516;2022-08-11T14:54:44;32.49;27.97
69776;DHT22;57049;51.450;-2.516;2022-08-11T14:57:31;32.53;27.78
69776;DHT22;57049;51.450;-2.516;2022-08-11T14:59:59;32.56;27.67
69776;DHT22;57049;51.450;-2.516;2022-08-11T15:02:26;32.63;28.03
69776;DHT22;57049;51.450;-2.516;2022-08-11T15:05:12;32.19;27.30
69776;DHT22;57049;51.450;-2.516;2022-08-11T15:07:38;32.63;27.39
69776;DHT22;57049;51.450;-2.516;2022-08-11T15:10:05;32.51;27.28
69776;DHT22;57049;51.450;-2.516;2022-08-11T15:12:34;32.43;27.37
69776;DHT22;57049;51.450;-2.516;2022-08-11T15:15:01;32.49;26.80
69776;DHT22;57049;51.450;-2.516;2022-08-11T15:17:46;32.74;26.98
69776;DHT22;57049;51.450;-2.516;2022-08-11T15:20:17;32.50;27.36
69776;DHT22;57049;51.450;-2.516;2022-08-11T15:23:02;32.36;27.06
69776;DHT22;57049;51.450;-2.516;2022-08-11T15:25:54;32.68;26.22
69776;DHT22;57049;51.450;-2.516;2022-08-11T15:28:22;32.63;26.12
69776;DHT22;57049;51.450;-2.516;2022-08-11T15:31:07;32.54;26.45
69776;DHT22;57049;51.450;-2.516;2022-08-11T15:33:54;32.70;27.29
69776;DHT22;57049;51.450;-2.516;2022-08-11T15:36:41;32.65;26.28
69776;DHT22;57049;51.450;-2.516;2022-08-11T15:39:31;32.63;25.37
69776;DHT22;57049;51.450;-2.516;2022-08-11T15:42:12;32.51;25.62
69776;DHT22;57049;51.450;-2.516;2022-08-11T15:44:59;32.44;26.22
69776;DHT22;57049;51.450;-2.516;2022-08-11T15:47:58;32.53;26.46
69776;DHT22;57049;51.450;-2.516;2022-08-11T15:50:27;32.51;26.68
69776;DHT22;57049;51.450;-2.516;2022-08-11T15:53:21;32.34;26.14
69776;DHT22;57049;51.450;-2.516;2022-08-11T15:55:48;32.36;25.57
69776;DHT22;57049;51.450;-2.516;2022-08-11T15:58:16;32.57;26.53
69776;DHT22;57049;51.450;-2.516;2022-08-11T16:01:02;32.33;26.98
69776;DHT22;57049;51.450;-2.516;2022-08-11T16:03:53;32.19;27.14
69776;DHT22;57049;51.450;-2.516;2022-08-11T16:09:41;32.43;25.67
69776;DHT22;57049;51.450;-2.516;2022-08-11T16:12:14;32.47;25.58
69776;DHT22;57049;51.450;-2.516;2022-08-11T16:14:47;32.37;25.42
69776;DHT22;57049;51.450;-2.516;2022-08-11T16:17:38;32.37;25.57
69776;DHT22;57049;51.450;-2.516;2022-08-11T16:20:06;32.40;26.14
69776;DHT22;57049;51.450;-2.516;2022-08-11T16:22:33;32.37;25.46
69776;DHT22;57049;51.450;-2.516;2022-08-11T16:25:09;32.37;26.32
69776;DHT22;57049;51.450;-2.516;2022-08-11T16:27:39;32.30;25.89
69776;DHT22;57049;51.450;-2.516;2022-08-11T16:30:07;32.40;25.98
69776;DHT22;57049;51.450;-2.516;2022-08-11T16:32:34;32.37;26.11
69776;DHT22;57049;51.450;-2.516;2022-08-11T16:35:04;32.33;26.28
69776;DHT22;57049;51.450;-2.516;2022-08-11T16:37:51;32.24;26.95
69776;DHT22;57049;51.450;-2.516;2022-08-11T16:40:35;32.33;25.88
69776;DHT22;57049;51.450;-2.516;2022-08-11T16:43:04;32.17;25.88
69776;DHT22;57049;51.450;-2.516;2022-08-11T16:45:51;32.10;26.24
69776;DHT22;57049;51.450;-2.516;2022-08-11T16:48:37;32.13;26.09
69776;DHT22;57049;51.450;-2.516;2022-08-11T16:51:05;32.30;26.18
69776;DHT22;57049;51.450;-2.516;2022-08-11T16:53:31;32.33;25.44
69776;DHT22;57049;51.450;-2.516;2022-08-11T16:55:59;32.27;26.07
69776;DHT22;57049;51.450;-2.516;2022-08-11T16:58:28;32.13;25.89
69776;DHT22;57049;51.450;-2.516;2022-08-11T17:01:13;32.14;26.03
69776;DHT22;57049;51.450;-2.516;2022-08-11T17:03:44;32.22;26.10
69776;DHT22;57049;51.450;-2.516;2022-08-11T17:06:31;32.13;26.00
69776;DHT22;57049;51.450;-2.516;2022-08-11T17:09:20;32.13;26.33
69776;DHT22;57049;51.450;-2.516;2022-08-11T17:12:07;32.06;26.35
69776;DHT22;57049;51.450;-2.516;2022-08-11T17:14:56;31.96;25.78
69776;DHT22;57049;51.450;-2.516;2022-08-11T17:17:27;31.73;25.34
69776;DHT22;57049;51.450;-2.516;2022-08-11T17:19:58;31.75;25.95
69776;DHT22;57049;51.450;-2.516;2022-08-11T17:22:25;31.79;26.64
69776;DHT22;57049;51.450;-2.516;2022-08-11T17:25:11;31.96;26.01
69776;DHT22;57049;51.450;-2.516;2022-08-11T17:27:37;31.93;26.06
69776;DHT22;57049;51.450;-2.516;2022-08-11T17:30:05;31.79;25.96
69776;DHT22;57049;51.450;-2.516;2022-08-11T17:32:40;31.62;26.40
69776;DHT22;57049;51.450;-2.516;2022-08-11T17:35:28;31.66;26.90
69776;DHT22;57049;51.450;-2.516;2022-08-11T17:41:00;31.75;27.71
69776;DHT22;57049;51.450;-2.516;2022-08-11T17:43:46;31.73;27.13
69776;DHT22;57049;51.450;-2.516;2022-08-11T17:46:32;31.68;26.24
69776;DHT22;57049;51.450;-2.516;2022-08-11T17:49:18;31.61;26.21
69776;DHT22;57049;51.450;-2.516;2022-08-11T17:51:46;31.59;26.55
69776;DHT22;57049;51.450;-2.516;2022-08-11T17:54:33;31.58;26.71
69776;DHT22;57049;51.450;-2.516;2022-08-11T17:57:19;31.58;26.56
69776;DHT22;57049;51.450;-2.516;2022-08-11T18:00:05;31.52;26.71
69776;DHT22;57049;51.450;-2.516;2022-08-11T18:02:36;31.49;26.34
69776;DHT22;57049;51.450;-2.516;2022-08-11T18:05:23;31.51;26.43
69776;DHT22;57049;51.450;-2.516;2022-08-11T18:07:52;31.28;27.08
69776;DHT22;57049;51.450;-2.516;2022-08-11T18:10:38;31.24;27.86
69776;DHT22;57049;51.450;-2.516;2022-08-11T18:13:24;31.27;27.45
69776;DHT22;57049;51.450;-2.516;2022-08-11T18:16:10;31.24;27.35
69776;DHT22;57049;51.450;-2.516;2022-08-11T18:18:54;31.17;27.83
69776;DHT22;57049;51.450;-2.516;2022-08-11T18:21:41;31.06;28.30
69776;DHT22;57049;51.450;-2.516;2022-08-11T18:24:36;31.01;28.08
69776;DHT22;57049;51.450;-2.516;2022-08-11T18:27:25;30.98;28.01
69776;DHT22;57049;51.450;-2.516;2022-08-11T18:30:11;30.81;28.50
69776;DHT22;57049;51.450;-2.516;2022-08-11T18:32:57;30.69;28.89
69776;DHT22;57049;51.450;-2.516;2022-08-11T18:35:45;30.73;29.18
69776;DHT22;57049;51.450;-2.516;2022-08-11T18:38:32;30.60;29.54
69776;DHT22;57049;51.450;-2.516;2022-08-11T18:41:17;30.55;29.76
69776;DHT22;57049;51.450;-2.516;2022-08-11T18:44:04;30.47;29.72
69776;DHT22;57049;51.450;-2.516;2022-08-11T18:46:49;30.35;30.04
69776;DHT22;57049;51.450;-2.516;2022-08-11T18:49:35;30.19;30.39
69776;DHT22;57049;51.450;-2.516;2022-08-11T18:52:21;30.19;30.12
69776;DHT22;57049;51.450;-2.516;2022-08-11T18:55:16;30.18;30.31
69776;DHT22;57049;51.450;-2.516;2022-08-11T18:58:08;30.01;30.82
69776;DHT22;57049;51.450;-2.516;2022-08-11T19:00:58;29.82;31.06
69776;DHT22;57049;51.450;-2.516;2022-08-11T19:03:44;29.67;31.68
69776;DHT22;57049;51.450;-2.516;2022-08-11T19:06:30;29.65;31.74
69776;DHT22;57049;51.450;-2.516;2022-08-11T19:09:16;29.53;31.91
69776;DHT22;57049;51.450;-2.516;2022-08-11T19:12:01;29.39;32.51
69776;DHT22;57049;51.450;-2.516;2022-08-11T19:14:47;29.27;32.48
69776;DHT22;57049;51.450;-2.516;2022-08-11T19:17:35;29.08;33.01
69776;DHT22;57049;51.450;-2.516;2022-08-11T19:20:24;28.93;33.39
69776;DHT22;57049;51.450;-2.516;2022-08-11T19:23:10;28.75;33.70
69776;DHT22;57049;51.450;-2.516;2022-08-11T19:25:56;28.51;34.42
69776;DHT22;57049;51.450;-2.516;2022-08-11T19:28:44;28.35;34.55
69776;DHT22;57049;51.450;-2.516;2022-08-11T19:31:29;28.24;34.53
69776;DHT22;57049;51.450;-2.516;2022-08-11T19:34:15;28.06;35.52
69776;DHT22;57049;51.450;-2.516;2022-08-11T19:37:06;27.90;35.37
69776;DHT22;57049;51.450;-2.516;2022-08-11T19:39:53;27.83;35.33
69776;DHT22;57049;51.450;-2.516;2022-08-11T19:42:38;27.70;36.30
69776;DHT22;57049;51.450;-2.516;2022-08-11T19:45:22;27.58;36.25